createdAt,value
2022-09-23T00:00:20.625Z,238.40
2022-09-23T00:03:08.695Z,250.40
2022-09-23T00:06:01.950Z,253.73
2022-09-23T00:15:01.999Z,236.90
2022-09-23T00:17:49.863Z,243.87
2022-09-23T00:20:37.775Z,254.43
2022-09-23T00:23:27.037Z,256.13
2022-09-23T00:26:16.807Z,253.13
2022-09-23T00:29:04.884Z,252.13
2022-09-23T00:31:52.777Z,248.90
2022-09-23T00:34:41.046Z,267.53
2022-09-23T00:37:29.303Z,233.57
2022-09-23T00:40:18.845Z,256.10
2022-09-23T00:43:06.951Z,240.87
2022-09-23T00:45:54.909Z,254.17
2022-09-23T00:48:44.873Z,265.65
2022-09-23T00:51:35.670Z,259.30
2022-09-23T00:54:25.799Z,243.68
2022-09-23T00:57:16.946Z,255.17
2022-09-23T01:00:07.225Z,254.27
2022-09-23T01:02:55.316Z,247.97
2022-09-23T01:05:43.599Z,248.57
2022-09-23T01:08:31.705Z,250.90
2022-09-23T01:11:31.872Z,246.37
2022-09-23T01:14:40.413Z,240.23
2022-09-23T01:17:39.375Z,255.60
2022-09-23T01:20:42.662Z,235.67
2022-09-23T01:23:55.085Z,237.53
2022-09-23T01:26:59.611Z,243.13
2022-09-23T01:30:08.971Z,257.07
2022-09-23T01:33:06.098Z,239.23
2022-09-23T01:36:10.007Z,227.90
2022-09-23T01:39:03.057Z,233.70
2022-09-23T01:42:00.736Z,251.60
2022-09-23T01:44:57.858Z,244.50
2022-09-23T01:47:52.335Z,231.47
2022-09-23T01:50:59.620Z,231.27
2022-09-23T01:53:53.244Z,236.17
2022-09-23T01:56:47.466Z,249.23
2022-09-23T01:59:39.298Z,236.97
2022-09-23T02:02:32.727Z,231.10
2022-09-23T02:05:25.923Z,226.43
2022-09-23T02:08:19.828Z,224.70
2022-09-23T02:11:09.915Z,230.93
2022-09-23T02:14:02.505Z,234.03
2022-09-23T02:16:53.243Z,228.07
2022-09-23T02:19:47.794Z,235.70
2022-09-23T02:22:40.941Z,252.87
2022-09-23T02:25:36.425Z,250.63
2022-09-23T02:28:30.841Z,246.27
2022-09-23T02:31:30.964Z,270.60
2022-09-23T02:34:25.328Z,285.43
2022-09-23T02:37:24.625Z,301.73
2022-09-23T02:40:18.937Z,286.47
2022-09-23T02:43:15.537Z,300.37
2022-09-23T02:46:04.598Z,309.50
2022-09-23T02:48:56.686Z,293.77
2022-09-23T02:51:45.489Z,312.80
2022-09-23T02:54:35.315Z,300.17
2022-09-23T02:57:23.254Z,298.70
2022-09-23T03:00:14.216Z,303.70
2022-09-23T03:03:23.964Z,306.37
2022-09-23T03:06:24.472Z,291.97
2022-09-23T03:09:20.523Z,280.33
2022-09-23T03:12:16.500Z,259.77
2022-09-23T03:15:16.450Z,258.43
2022-09-23T03:18:11.044Z,262.30
2022-09-23T03:21:03.525Z,242.13
2022-09-23T03:23:52.796Z,253.67
2022-09-23T03:26:44.965Z,252.37
2022-09-23T03:29:37.103Z,251.07
2022-09-23T03:32:28.931Z,252.60
2022-09-23T03:35:17.128Z,253.47
2022-09-23T03:38:17.367Z,224.50
2022-09-23T03:41:06.611Z,236.40
2022-09-23T03:43:54.793Z,244.13
2022-09-23T03:46:46.433Z,235.53
2022-09-23T03:49:39.193Z,238.47
2022-09-23T03:52:28.347Z,235.07
2022-09-23T03:55:17.123Z,229.47
2022-09-23T03:58:04.983Z,242.67
2022-09-23T04:00:54.625Z,242.53
2022-09-23T04:03:43.340Z,230.43
2022-09-23T04:06:32.544Z,227.27
2022-09-23T04:09:20.463Z,238.27
2022-09-23T04:12:08.968Z,234.80
2022-09-23T04:14:56.832Z,240.80
2022-09-23T04:17:44.717Z,240.90
2022-09-23T04:20:32.588Z,232.47
2022-09-23T04:23:21.764Z,230.30
2022-09-23T04:26:09.721Z,229.47
2022-09-23T04:28:58.243Z,231.20
2022-09-23T04:31:46.516Z,237.70
2022-09-23T04:34:34.413Z,237.83
2022-09-23T04:37:22.279Z,236.10
2022-09-23T04:40:11.948Z,247.27
2022-09-23T04:42:59.989Z,251.90
2022-09-23T04:45:47.837Z,250.93
2022-09-23T04:48:37.620Z,247.87
2022-09-23T04:51:26.927Z,245.30
2022-09-23T04:54:15.285Z,232.83
2022-09-23T04:57:04.820Z,236.67
2022-09-23T04:59:54.458Z,237.40
2022-09-23T05:02:45.620Z,251.13
2022-09-23T05:05:34.191Z,236.37
2022-09-23T05:08:22.075Z,262.47
2022-09-23T05:11:09.969Z,246.47
2022-09-23T05:13:59.480Z,239.20
2022-09-23T05:16:47.381Z,244.20
2022-09-23T05:19:35.366Z,240.97
2022-09-23T05:22:23.217Z,267.03
2022-09-23T05:25:11.102Z,254.47
2022-09-23T05:27:58.943Z,237.37
2022-09-23T05:30:48.156Z,237.83
2022-09-23T05:33:37.688Z,240.97
2022-09-23T05:36:26.721Z,252.77
2022-09-23T05:39:14.659Z,243.17
2022-09-23T05:42:02.548Z,240.87
2022-09-23T05:44:50.422Z,233.23
2022-09-23T05:47:39.758Z,258.23
2022-09-23T05:50:27.636Z,249.80
2022-09-23T05:53:15.514Z,235.53
2022-09-23T05:58:54.270Z,252.40
2022-09-23T06:01:42.277Z,260.63
2022-09-23T06:04:14.156Z,256.23
2022-09-23T06:06:43.276Z,264.03
2022-09-23T06:09:14.447Z,257.47
2022-09-23T06:11:42.931Z,267.00
2022-09-23T06:14:13.772Z,266.23
2022-09-23T06:16:41.639Z,257.97
2022-09-23T06:19:10.371Z,274.53
2022-09-23T06:21:41.339Z,269.63
2022-09-23T06:24:12.105Z,272.53
2022-09-23T06:26:41.029Z,278.47
2022-09-23T06:29:11.667Z,289.80
2022-09-23T06:31:41.116Z,283.80
2022-09-23T06:34:13.193Z,294.93
2022-09-23T06:36:45.378Z,283.80
2022-09-23T06:39:14.527Z,266.30
2022-09-23T06:41:42.276Z,280.30
2022-09-23T06:44:13.269Z,281.33
2022-09-23T06:46:41.148Z,285.67
2022-09-23T06:49:09.357Z,282.93
2022-09-23T06:51:37.003Z,265.23
2022-09-23T06:54:06.238Z,293.57
2022-09-23T06:56:38.741Z,268.93
2022-09-23T06:59:08.212Z,271.93
2022-09-23T07:01:36.042Z,268.97
2022-09-23T07:04:03.738Z,275.73
2022-09-23T07:06:31.364Z,295.23
2022-09-23T07:08:59.103Z,292.77
2022-09-23T07:11:28.086Z,267.47
2022-09-23T07:13:56.196Z,275.57
2022-09-23T07:16:23.894Z,279.57
2022-09-23T07:18:53.367Z,281.10
2022-09-23T07:21:21.012Z,288.87
2022-09-23T07:23:51.617Z,290.73
2022-09-23T07:26:20.402Z,289.27
2022-09-23T07:28:54.211Z,286.83
2022-09-23T07:31:35.137Z,292.33
2022-09-23T07:34:06.993Z,286.10
2022-09-23T07:36:37.136Z,307.00
2022-09-23T07:39:05.130Z,309.33
2022-09-23T07:41:35.014Z,307.63
2022-09-23T07:44:05.966Z,325.35
2022-09-23T07:46:36.119Z,322.33
2022-09-23T07:49:04.384Z,309.05
2022-09-23T07:51:36.416Z,316.40
2022-09-23T07:54:07.693Z,330.65
2022-09-23T07:56:36.158Z,318.02
2022-09-23T07:59:05.500Z,320.55
2022-09-23T08:01:35.612Z,321.63
2022-09-23T08:04:06.816Z,304.57
2022-09-23T08:06:34.745Z,317.55
2022-09-23T08:09:02.693Z,336.08
2022-09-23T08:11:31.183Z,320.45
2022-09-23T08:13:58.907Z,334.65
2022-09-23T08:16:28.271Z,342.15
2022-09-23T08:18:55.919Z,367.77
2022-09-23T08:21:23.972Z,339.38
2022-09-23T08:23:51.706Z,346.58
2022-09-23T08:26:21.977Z,344.42
2022-09-23T08:28:53.773Z,351.77
2022-09-23T08:31:21.844Z,377.10
2022-09-23T08:33:55.608Z,349.23
2022-09-23T08:36:23.500Z,342.50
2022-09-23T08:38:51.141Z,367.70
2022-09-23T08:41:28.369Z,372.98
2022-09-23T08:44:00.312Z,360.83
2022-09-23T08:46:33.065Z,346.23
2022-09-23T08:49:02.762Z,349.75
2022-09-23T08:51:38.012Z,348.38
2022-09-23T08:54:07.500Z,363.15
2022-09-23T08:56:38.727Z,369.85
2022-09-23T08:59:13.289Z,353.98
2022-09-23T09:01:45.613Z,330.77
2022-09-23T09:04:19.709Z,342.73
2022-09-23T09:06:53.887Z,333.52
2022-09-23T09:09:29.461Z,318.33
2022-09-23T09:12:04.016Z,290.10
2022-09-23T09:14:37.970Z,271.38
2022-09-23T09:17:10.451Z,277.77
2022-09-23T09:19:53.638Z,278.65
2022-09-23T09:22:25.991Z,263.65
2022-09-23T09:25:01.791Z,276.55
2022-09-23T09:27:29.757Z,270.90
2022-09-23T09:30:01.259Z,280.63
2022-09-23T09:32:43.837Z,288.40
2022-09-23T09:35:21.594Z,298.38
2022-09-23T09:37:49.189Z,297.63
2022-09-23T09:40:17.932Z,294.75
2022-09-23T09:42:48.264Z,303.83
2022-09-23T09:45:26.257Z,299.55
2022-09-23T09:48:02.865Z,300.38
2022-09-23T09:50:49.025Z,306.20
2022-09-23T09:53:27.902Z,295.38
2022-09-23T09:56:05.656Z,293.52
2022-09-23T09:58:44.990Z,298.52
2022-09-23T10:01:21.156Z,299.13
2022-09-23T10:03:53.205Z,275.77
2022-09-23T10:06:27.754Z,281.10
2022-09-23T10:09:11.421Z,271.15
2022-09-23T10:11:40.335Z,300.98
2022-09-23T10:14:13.604Z,276.77
2022-09-23T10:16:42.472Z,262.75
2022-09-23T10:19:18.458Z,288.13
2022-09-23T10:21:52.981Z,294.52
2022-09-23T10:24:25.779Z,312.67
2022-09-23T10:26:58.264Z,308.77
2022-09-23T10:29:30.831Z,290.75
2022-09-23T10:32:20.094Z,307.73
2022-09-23T10:34:52.370Z,316.70
2022-09-23T10:37:29.444Z,302.45
2022-09-23T10:40:14.958Z,292.75
2022-09-23T10:43:26.451Z,289.27
2022-09-23T10:46:15.673Z,291.27
2022-09-23T10:48:54.150Z,288.88
2022-09-23T10:51:32.012Z,274.98
2022-09-23T10:54:07.355Z,254.98
2022-09-23T10:56:38.061Z,278.42
2022-09-23T10:59:27.066Z,276.05
2022-09-23T11:02:07.266Z,241.95
2022-09-23T11:05:02.183Z,247.73
2022-09-23T11:07:37.248Z,255.20
2022-09-23T11:10:45.949Z,239.25
2022-09-23T11:13:27.702Z,238.98
2022-09-23T11:16:03.835Z,243.00
2022-09-23T11:18:48.726Z,244.60
2022-09-23T11:21:32.584Z,244.70
2022-09-23T11:24:22.751Z,242.02
2022-09-23T11:27:00.587Z,229.52
2022-09-23T11:29:49.237Z,239.05
2022-09-23T11:32:33.968Z,245.93
2022-09-23T11:35:12.009Z,210.10
2022-09-23T11:37:43.891Z,224.07
2022-09-23T11:40:18.975Z,238.85
2022-09-23T11:42:56.435Z,243.60
2022-09-23T11:45:28.971Z,206.73
2022-09-23T11:48:02.267Z,214.30
2022-09-23T11:50:35.659Z,213.70
2022-09-23T11:53:08.390Z,202.15
2022-09-23T11:55:55.191Z,214.63
2022-09-23T11:58:32.389Z,203.30
2022-09-23T12:01:07.061Z,196.13
2022-09-23T12:03:44.901Z,190.65
2022-09-23T12:06:16.602Z,204.32
2022-09-23T12:08:44.513Z,195.88
2022-09-23T12:11:24.851Z,194.60
2022-09-23T12:14:08.416Z,209.43
2022-09-23T12:16:58.679Z,190.77
2022-09-23T12:20:00.944Z,186.80
2022-09-23T12:22:47.341Z,174.07
2022-09-23T12:25:32.881Z,186.10
2022-09-23T12:28:05.875Z,198.27
2022-09-23T12:30:38.040Z,199.13
2022-09-23T12:33:12.184Z,195.13
2022-09-23T12:35:44.637Z,199.25
2022-09-23T12:38:20.338Z,193.98
2022-09-23T12:40:49.567Z,187.10
2022-09-23T12:43:18.989Z,194.65
2022-09-23T12:45:48.404Z,197.50
2022-09-23T12:48:45.669Z,194.77
2022-09-23T12:51:19.140Z,196.52
2022-09-23T12:53:55.749Z,184.45
2022-09-23T12:57:03.049Z,196.85
2022-09-23T12:59:33.015Z,190.00
2022-09-23T13:02:30.919Z,206.95
2022-09-23T13:05:28.444Z,202.57
2022-09-23T13:08:03.053Z,200.73
2022-09-23T13:10:33.672Z,203.60
2022-09-23T13:13:03.218Z,201.35
2022-09-23T13:15:33.851Z,205.35
2022-09-23T13:18:50.244Z,192.40
2022-09-23T13:21:39.296Z,197.70
2022-09-23T13:24:35.010Z,195.57
2022-09-23T13:27:12.217Z,198.35
2022-09-23T13:29:44.901Z,211.82
2022-09-23T13:32:14.929Z,204.57
2022-09-23T13:34:46.558Z,199.30
2022-09-23T13:37:22.455Z,215.43
2022-09-23T13:39:51.892Z,217.35
2022-09-23T13:42:27.575Z,210.40
2022-09-23T13:45:00.272Z,206.40
2022-09-23T13:47:31.054Z,198.80
2022-09-23T13:49:58.881Z,210.30
2022-09-23T13:52:29.947Z,207.88
2022-09-23T13:54:58.937Z,193.95
2022-09-23T13:57:29.139Z,206.20
2022-09-23T14:00:02.242Z,206.07
2022-09-23T14:02:31.874Z,191.77
2022-09-23T14:04:59.544Z,209.65
2022-09-23T14:07:27.725Z,213.95
2022-09-23T14:09:56.744Z,201.18
2022-09-23T14:12:25.807Z,206.75
2022-09-23T14:14:53.851Z,213.95
2022-09-23T14:17:23.711Z,211.52
2022-09-23T14:19:52.248Z,221.73
2022-09-23T14:22:25.251Z,207.27
2022-09-23T14:24:53.757Z,216.30
2022-09-23T14:27:29.840Z,218.40
2022-09-23T14:29:58.289Z,204.82
2022-09-23T14:32:28.778Z,215.70
2022-09-23T14:35:09.195Z,215.93
2022-09-23T14:38:01.786Z,202.35
2022-09-23T14:40:31.201Z,205.73
2022-09-23T14:43:04.455Z,208.00
2022-09-23T14:45:35.140Z,206.23
2022-09-23T14:48:07.781Z,213.32
2022-09-23T14:50:40.493Z,211.45
2022-09-23T14:53:34.052Z,215.52
2022-09-23T14:56:20.253Z,214.07
2022-09-23T14:58:53.278Z,211.15
2022-09-23T15:01:36.388Z,217.82
2022-09-23T15:04:16.346Z,224.35
2022-09-23T15:06:49.434Z,200.85
2022-09-23T15:09:23.574Z,207.25
2022-09-23T15:11:58.349Z,217.40
2022-09-23T15:14:39.423Z,218.60
2022-09-23T15:17:19.906Z,205.60
2022-09-23T15:19:52.475Z,236.15
2022-09-23T15:22:20.232Z,219.57
2022-09-23T15:24:47.874Z,210.98
2022-09-23T15:27:26.851Z,222.90
2022-09-23T15:29:59.242Z,229.50
2022-09-23T15:32:26.866Z,216.55
2022-09-23T15:34:54.528Z,224.55
2022-09-23T15:37:22.110Z,229.82
2022-09-23T15:39:49.818Z,235.88
2022-09-23T15:42:18.176Z,238.98
2022-09-23T15:44:45.786Z,236.75
2022-09-23T15:47:18.922Z,240.73
2022-09-23T15:49:47.978Z,244.63
2022-09-23T15:52:17.554Z,266.30
2022-09-23T15:54:45.934Z,277.38
2022-09-23T15:57:13.577Z,291.65
2022-09-23T15:59:41.183Z,286.23
2022-09-23T16:02:24.112Z,283.45
2022-09-23T16:04:52.549Z,294.98
2022-09-23T16:07:21.367Z,290.48
2022-09-23T16:09:48.960Z,289.00
2022-09-23T16:12:16.537Z,286.63
2022-09-23T16:14:44.108Z,290.77
2022-09-23T16:17:14.199Z,322.75
2022-09-23T16:19:43.450Z,318.67
2022-09-23T16:22:14.677Z,308.63
2022-09-23T16:24:42.332Z,326.17
2022-09-23T16:27:20.466Z,337.25
2022-09-23T16:29:48.061Z,351.98
2022-09-23T16:32:21.464Z,331.52
2022-09-23T16:34:51.097Z,327.13
2022-09-23T16:37:21.014Z,302.10
2022-09-23T16:39:49.387Z,324.52
2022-09-23T16:42:17.093Z,318.95
2022-09-23T16:44:44.774Z,304.38
2022-09-23T16:47:12.373Z,335.40
2022-09-23T16:49:39.947Z,339.10
2022-09-23T16:52:12.719Z,341.88
2022-09-23T16:54:42.086Z,330.92
2022-09-23T16:57:10.282Z,350.15
2022-09-23T16:59:51.975Z,344.80
2022-09-23T17:02:37.180Z,319.35
2022-09-23T17:05:06.303Z,346.50
2022-09-23T17:07:35.306Z,342.75
2022-09-23T17:10:02.942Z,334.77
2022-09-23T17:12:35.043Z,338.35
2022-09-23T17:15:05.328Z,329.02
2022-09-23T17:17:36.944Z,347.70
2022-09-23T17:20:05.766Z,342.98
2022-09-23T17:22:34.960Z,342.73
2022-09-23T17:25:03.647Z,361.80
2022-09-23T17:27:31.902Z,359.95
2022-09-23T17:29:59.857Z,348.13
2022-09-23T17:32:28.073Z,368.52
2022-09-23T17:34:55.786Z,366.45
2022-09-23T17:37:23.303Z,354.55
2022-09-23T17:39:52.172Z,394.50
2022-09-23T17:42:19.775Z,388.50
2022-09-23T17:44:48.031Z,382.13
2022-09-23T17:47:15.780Z,407.90
2022-09-23T17:49:46.751Z,407.92
2022-09-23T17:52:14.320Z,424.88
2022-09-23T17:54:42.040Z,415.52
2022-09-23T17:57:10.971Z,413.20
2022-09-23T17:59:38.918Z,407.20
2022-09-23T18:02:06.579Z,416.20
2022-09-23T18:04:34.344Z,407.25
2022-09-23T18:07:02.019Z,425.50
2022-09-23T18:09:29.663Z,412.13
2022-09-23T18:11:57.741Z,404.17
2022-09-23T18:14:26.761Z,399.05
2022-09-23T18:16:54.792Z,408.55
2022-09-23T18:19:24.371Z,408.88
2022-09-23T18:21:54.482Z,396.30
2022-09-23T18:24:37.945Z,383.52
2022-09-23T18:27:06.438Z,382.50
2022-09-23T18:29:35.653Z,391.92
2022-09-23T18:32:03.725Z,402.65
2022-09-23T18:34:31.375Z,390.88
2022-09-23T18:36:59.009Z,357.58
2022-09-23T18:39:26.593Z,369.70
2022-09-23T18:41:54.807Z,367.27
2022-09-23T18:44:23.379Z,363.95
2022-09-23T18:46:52.288Z,369.30
2022-09-23T18:49:37.777Z,363.48
2022-09-23T18:52:05.393Z,361.95
2022-09-23T18:54:33.013Z,345.42
2022-09-23T18:57:01.272Z,374.67
2022-09-23T18:59:29.727Z,349.20
2022-09-23T19:01:58.834Z,354.02
2022-09-23T19:04:27.504Z,354.40
2022-09-23T19:06:56.766Z,356.48
2022-09-23T19:09:24.812Z,347.35
2022-09-23T19:11:53.701Z,349.15
2022-09-23T19:14:21.725Z,356.95
2022-09-23T19:16:50.536Z,345.05
2022-09-23T19:19:19.600Z,359.85
2022-09-23T19:21:47.266Z,357.13
2022-09-23T19:24:15.859Z,362.45
2022-09-23T19:26:44.926Z,359.00
2022-09-23T19:29:15.891Z,369.58
2022-09-23T19:31:44.184Z,363.35
2022-09-23T19:34:15.374Z,367.23
2022-09-23T19:36:46.036Z,350.48
2022-09-23T19:39:17.551Z,370.92
2022-09-23T19:41:45.998Z,374.58
2022-09-23T19:44:14.085Z,387.23
2022-09-23T19:46:45.088Z,366.02
2022-09-23T19:49:13.641Z,363.17
2022-09-23T19:51:43.909Z,376.05
2022-09-23T19:54:18.933Z,353.20
2022-09-23T19:56:47.496Z,365.83
2022-09-23T19:59:18.455Z,366.95
2022-09-23T20:01:47.508Z,390.23
2022-09-23T20:04:35.508Z,363.08
2022-09-23T20:07:23.344Z,359.23
2022-09-23T20:10:13.104Z,349.48
2022-09-23T20:13:01.024Z,346.20
2022-09-23T20:15:49.643Z,363.48
2022-09-23T20:18:38.036Z,351.77
2022-09-23T20:21:26.550Z,330.48
2022-09-23T20:24:14.381Z,349.55
2022-09-23T20:27:09.501Z,353.25
2022-09-23T20:29:57.641Z,342.27
2022-09-23T20:32:45.546Z,346.02
2022-09-23T20:35:33.528Z,343.60
2022-09-23T20:38:21.409Z,347.45
2022-09-23T20:41:10.016Z,347.83
2022-09-23T20:43:59.602Z,343.45
2022-09-23T20:46:48.958Z,346.30
2022-09-23T20:49:37.696Z,350.27
2022-09-23T20:52:25.726Z,333.45
2022-09-23T20:55:13.628Z,341.15
2022-09-23T20:58:03.523Z,343.10
2022-09-23T21:00:52.780Z,343.08
2022-09-23T21:03:42.610Z,348.83
2022-09-23T21:06:31.126Z,328.73
2022-09-23T21:09:20.064Z,347.65
2022-09-23T21:12:07.942Z,331.88
2022-09-23T21:14:55.820Z,336.00
2022-09-23T21:17:45.048Z,355.65
2022-09-23T21:20:32.937Z,350.67
2022-09-23T21:23:21.978Z,338.05
2022-09-23T21:26:12.015Z,320.50
2022-09-23T21:29:01.560Z,334.67
2022-09-23T21:31:49.818Z,358.65
2022-09-23T21:34:39.161Z,334.70
2022-09-23T21:37:27.020Z,325.00
2022-09-23T21:40:32.541Z,328.95
2022-09-23T21:43:20.676Z,314.48
2022-09-23T21:46:10.496Z,343.25
2022-09-23T21:48:58.676Z,331.25
2022-09-23T21:51:48.006Z,314.58
2022-09-23T21:54:36.347Z,354.70
2022-09-23T21:57:25.748Z,321.10
2022-09-23T22:00:14.592Z,349.63
2022-09-23T22:03:02.515Z,329.58
2022-09-23T22:06:01.628Z,324.02
2022-09-23T22:08:53.152Z,314.85
2022-09-23T22:11:59.882Z,303.55
2022-09-23T22:14:47.854Z,312.23
2022-09-23T22:17:35.731Z,317.52
2022-09-23T22:20:23.662Z,323.85
2022-09-23T22:23:12.082Z,341.23
2022-09-23T22:26:03.477Z,348.38
2022-09-23T22:29:09.831Z,328.65
2022-09-23T22:32:15.605Z,310.70
2022-09-23T22:35:03.617Z,328.17
2022-09-23T22:37:51.510Z,324.55
2022-09-23T22:40:39.468Z,305.08
2022-09-23T22:43:28.843Z,317.20
2022-09-23T22:46:22.032Z,324.45
2022-09-23T22:49:10.098Z,342.42
2022-09-23T22:51:58.131Z,314.10
2022-09-23T22:54:46.001Z,320.60
2022-09-23T22:57:33.913Z,307.02
2022-09-23T23:00:23.191Z,322.02
2022-09-23T23:03:11.071Z,317.90
2022-09-23T23:06:01.534Z,309.83
2022-09-23T23:08:49.406Z,320.13
2022-09-23T23:11:38.018Z,325.85
2022-09-23T23:14:26.342Z,326.13
2022-09-23T23:17:15.590Z,333.83
2022-09-23T23:20:03.491Z,341.63
2022-09-23T23:22:51.412Z,322.08
2022-09-23T23:25:39.315Z,337.55
2022-09-23T23:28:27.200Z,318.23
2022-09-23T23:31:17.220Z,316.88
2022-09-23T23:34:08.214Z,334.38
2022-09-23T23:36:56.397Z,329.27
2022-09-23T23:39:47.685Z,314.65
2022-09-23T23:42:35.601Z,314.88
2022-09-23T23:45:23.458Z,344.63
2022-09-23T23:48:11.542Z,318.00
2022-09-23T23:51:02.044Z,327.80
2022-09-23T23:53:50.187Z,322.38
2022-09-23T23:56:38.061Z,326.83
2022-09-23T23:59:26.075Z,315.60
